Peterborough, United Kingdom
Current Conditions -  °F | °C
As of 12:50 PM on Thursday 23 Oct 2014 (Local Time) from EGXT Reporting Station
Broken Clouds Broken Clouds  
Wind Chill: 57°   Ceiling: 1700
Heat Index: 57°   Visibility: 6mi
Dew Point: 52°   Wind: 20mph
Humidity: 82%   Direction: 230°SW
Pressure: 30.03"   Gusts: NA
Location:  52.57°N, 0.24°W
Report Text: EGXT 231150Z AUTO 23017KT 9999 // BKN017/// BKN050/// 14/11 Q1017
Loading
Personal Weather Stations






























Interactive Weather Map
Tropical Storm Tracking
New forecast layout! Learn more

10-Day Weather Forecast

Advertisements
Track Severe Weather on mobile